sensor_id;sensor_type;location;lat;lon;timestamp;P1;durP1;ratioP1;P2;durP2;ratioP2
66966;SDS011;53900;51.468;-2.586;2023-08-20T00:01:38;14.85;;;3.15;;
66966;SDS011;53900;51.468;-2.586;2023-08-20T00:04:04;15.32;;;2.92;;
66966;SDS011;53900;51.468;-2.586;2023-08-20T00:06:29;14.95;;;3.05;;
66966;SDS011;53900;51.468;-2.586;2023-08-20T00:08:54;17.27;;;3.15;;
66966;SDS011;53900;51.468;-2.586;2023-08-20T00:11:20;14.50;;;2.35;;
66966;SDS011;53900;51.468;-2.586;2023-08-20T00:13:45;14.48;;;2.70;;
66966;SDS011;53900;51.468;-2.586;2023-08-20T00:16:10;17.05;;;3.22;;
66966;SDS011;53900;51.468;-2.586;2023-08-20T00:18:37;12.02;;;2.83;;
66966;SDS011;53900;51.468;-2.586;2023-08-20T00:21:03;15.55;;;2.80;;
66966;SDS011;53900;51.468;-2.586;2023-08-20T00:23:29;28.88;;;3.30;;
66966;SDS011;53900;51.468;-2.586;2023-08-20T00:25:55;11.75;;;2.88;;
66966;SDS011;53900;51.468;-2.586;2023-08-20T00:28:20;15.05;;;2.85;;
66966;SDS011;53900;51.468;-2.586;2023-08-20T00:30:45;18.60;;;2.30;;
66966;SDS011;53900;51.468;-2.586;2023-08-20T00:33:11;12.48;;;2.42;;
66966;SDS011;53900;51.468;-2.586;2023-08-20T00:35:36;16.50;;;2.78;;
66966;SDS011;53900;51.468;-2.586;2023-08-20T00:38:01;13.60;;;2.30;;
66966;SDS011;53900;51.468;-2.586;2023-08-20T00:40:27;11.13;;;2.25;;
66966;SDS011;53900;51.468;-2.586;2023-08-20T00:42:52;19.17;;;3.40;;
66966;SDS011;53900;51.468;-2.586;2023-08-20T00:45:18;12.93;;;2.60;;
66966;SDS011;53900;51.468;-2.586;2023-08-20T00:47:43;12.85;;;2.50;;
66966;SDS011;53900;51.468;-2.586;2023-08-20T00:50:08;15.25;;;2.58;;
66966;SDS011;53900;51.468;-2.586;2023-08-20T00:52:35;17.48;;;3.05;;
66966;SDS011;53900;51.468;-2.586;2023-08-20T00:55:03;16.70;;;3.67;;
66966;SDS011;53900;51.468;-2.586;2023-08-20T00:57:30;19.50;;;3.25;;
66966;SDS011;53900;51.468;-2.586;2023-08-20T00:59:55;22.05;;;3.28;;
66966;SDS011;53900;51.468;-2.586;2023-08-20T01:02:22;17.00;;;2.88;;
66966;SDS011;53900;51.468;-2.586;2023-08-20T01:04:47;12.02;;;2.50;;
66966;SDS011;53900;51.468;-2.586;2023-08-20T01:12:22;15.73;;;3.30;;
66966;SDS011;53900;51.468;-2.586;2023-08-20T01:14:47;14.63;;;2.72;;
66966;SDS011;53900;51.468;-2.586;2023-08-20T01:17:12;12.18;;;3.22;;
66966;SDS011;53900;51.468;-2.586;2023-08-20T01:19:38;13.93;;;3.67;;
66966;SDS011;53900;51.468;-2.586;2023-08-20T01:22:13;10.82;;;2.80;;
66966;SDS011;53900;51.468;-2.586;2023-08-20T01:30:00;9.02;;;3.15;;
66966;SDS011;53900;51.468;-2.586;2023-08-20T01:32:25;19.95;;;4.55;;
66966;SDS011;53900;51.468;-2.586;2023-08-20T01:34:52;17.27;;;3.72;;
66966;SDS011;53900;51.468;-2.586;2023-08-20T01:37:17;22.38;;;3.30;;
66966;SDS011;53900;51.468;-2.586;2023-08-20T01:39:42;14.07;;;3.15;;
66966;SDS011;53900;51.468;-2.586;2023-08-20T01:42:08;15.02;;;3.65;;
66966;SDS011;53900;51.468;-2.586;2023-08-20T01:44:33;15.15;;;2.70;;
66966;SDS011;53900;51.468;-2.586;2023-08-20T01:46:58;13.82;;;2.35;;
66966;SDS011;53900;51.468;-2.586;2023-08-20T01:49:23;11.95;;;2.30;;
66966;SDS011;53900;51.468;-2.586;2023-08-20T01:51:49;12.00;;;2.30;;
66966;SDS011;53900;51.468;-2.586;2023-08-20T01:54:14;17.08;;;2.78;;
66966;SDS011;53900;51.468;-2.586;2023-08-20T01:56:39;23.10;;;2.70;;
66966;SDS011;53900;51.468;-2.586;2023-08-20T01:59:05;12.10;;;2.58;;
66966;SDS011;53900;51.468;-2.586;2023-08-20T02:01:30;13.43;;;2.63;;
66966;SDS011;53900;51.468;-2.586;2023-08-20T02:03:55;16.52;;;3.17;;
66966;SDS011;53900;51.468;-2.586;2023-08-20T02:06:20;18.75;;;3.05;;
66966;SDS011;53900;51.468;-2.586;2023-08-20T02:08:46;16.85;;;2.90;;
66966;SDS011;53900;51.468;-2.586;2023-08-20T02:11:12;12.55;;;2.60;;
66966;SDS011;53900;51.468;-2.586;2023-08-20T02:13:37;15.50;;;2.70;;
66966;SDS011;53900;51.468;-2.586;2023-08-20T02:16:03;13.85;;;2.92;;
66966;SDS011;53900;51.468;-2.586;2023-08-20T02:18:31;16.50;;;2.60;;
66966;SDS011;53900;51.468;-2.586;2023-08-20T02:20:57;11.52;;;2.67;;
66966;SDS011;53900;51.468;-2.586;2023-08-20T02:23:22;12.73;;;3.30;;
66966;SDS011;53900;51.468;-2.586;2023-08-20T02:25:48;13.88;;;2.70;;
66966;SDS011;53900;51.468;-2.586;2023-08-20T02:28:13;12.85;;;3.50;;
66966;SDS011;53900;51.468;-2.586;2023-08-20T02:30:42;11.18;;;2.83;;
66966;SDS011;53900;51.468;-2.586;2023-08-20T02:33:07;14.63;;;3.20;;
66966;SDS011;53900;51.468;-2.586;2023-08-20T02:35:33;14.85;;;2.70;;
66966;SDS011;53900;51.468;-2.586;2023-08-20T02:37:58;15.05;;;2.85;;
66966;SDS011;53900;51.468;-2.586;2023-08-20T02:40:24;14.35;;;2.60;;
66966;SDS011;53900;51.468;-2.586;2023-08-20T02:42:49;10.90;;;2.97;;
66966;SDS011;53900;51.468;-2.586;2023-08-20T02:45:14;17.88;;;2.88;;
66966;SDS011;53900;51.468;-2.586;2023-08-20T02:47:39;11.60;;;2.92;;
66966;SDS011;53900;51.468;-2.586;2023-08-20T02:50:05;14.90;;;2.90;;
66966;SDS011;53900;51.468;-2.586;2023-08-20T02:52:30;15.25;;;2.95;;
66966;SDS011;53900;51.468;-2.586;2023-08-20T02:54:55;20.88;;;2.83;;
66966;SDS011;53900;51.468;-2.586;2023-08-20T02:57:20;8.88;;;2.53;;
66966;SDS011;53900;51.468;-2.586;2023-08-20T02:59:46;10.85;;;2.67;;
66966;SDS011;53900;51.468;-2.586;2023-08-20T03:02:11;13.63;;;3.08;;
66966;SDS011;53900;51.468;-2.586;2023-08-20T03:04:37;12.82;;;2.70;;
66966;SDS011;53900;51.468;-2.586;2023-08-20T03:07:02;12.45;;;2.60;;
66966;SDS011;53900;51.468;-2.586;2023-08-20T03:09:27;16.77;;;2.70;;
66966;SDS011;53900;51.468;-2.586;2023-08-20T03:11:53;16.00;;;3.28;;
66966;SDS011;53900;51.468;-2.586;2023-08-20T03:14:18;10.32;;;2.42;;
66966;SDS011;53900;51.468;-2.586;2023-08-20T03:16:43;10.70;;;2.38;;
66966;SDS011;53900;51.468;-2.586;2023-08-20T03:19:08;21.05;;;3.40;;
66966;SDS011;53900;51.468;-2.586;2023-08-20T03:21:34;19.42;;;3.08;;
66966;SDS011;53900;51.468;-2.586;2023-08-20T03:23:59;9.90;;;2.47;;
66966;SDS011;53900;51.468;-2.586;2023-08-20T03:26:24;20.08;;;3.03;;
66966;SDS011;53900;51.468;-2.586;2023-08-20T03:28:49;10.68;;;2.25;;
66966;SDS011;53900;51.468;-2.586;2023-08-20T03:31:14;15.25;;;2.30;;
66966;SDS011;53900;51.468;-2.586;2023-08-20T03:33:40;11.48;;;2.30;;
66966;SDS011;53900;51.468;-2.586;2023-08-20T03:36:05;11.32;;;2.40;;
66966;SDS011;53900;51.468;-2.586;2023-08-20T03:38:30;17.00;;;2.88;;
66966;SDS011;53900;51.468;-2.586;2023-08-20T03:40:56;16.05;;;3.22;;
66966;SDS011;53900;51.468;-2.586;2023-08-20T03:43:21;13.85;;;2.58;;
66966;SDS011;53900;51.468;-2.586;2023-08-20T03:45:49;11.93;;;2.10;;
66966;SDS011;53900;51.468;-2.586;2023-08-20T03:48:14;13.05;;;2.88;;
66966;SDS011;53900;51.468;-2.586;2023-08-20T03:50:39;9.55;;;1.83;;
66966;SDS011;53900;51.468;-2.586;2023-08-20T03:53:05;13.30;;;2.83;;
66966;SDS011;53900;51.468;-2.586;2023-08-20T03:55:30;10.50;;;2.78;;
66966;SDS011;53900;51.468;-2.586;2023-08-20T03:57:55;13.75;;;2.38;;
66966;SDS011;53900;51.468;-2.586;2023-08-20T04:00:20;9.40;;;2.33;;
66966;SDS011;53900;51.468;-2.586;2023-08-20T04:02:45;9.80;;;2.33;;
66966;SDS011;53900;51.468;-2.586;2023-08-20T04:05:11;13.18;;;2.28;;
66966;SDS011;53900;51.468;-2.586;2023-08-20T04:07:37;12.98;;;2.90;;
66966;SDS011;53900;51.468;-2.586;2023-08-20T04:10:02;10.27;;;2.22;;
66966;SDS011;53900;51.468;-2.586;2023-08-20T04:12:27;9.27;;;2.50;;
66966;SDS011;53900;51.468;-2.586;2023-08-20T04:14:52;12.98;;;3.42;;
66966;SDS011;53900;51.468;-2.586;2023-08-20T04:17:18;12.93;;;2.53;;
66966;SDS011;53900;51.468;-2.586;2023-08-20T04:19:43;13.23;;;3.05;;
66966;SDS011;53900;51.468;-2.586;2023-08-20T04:22:08;20.05;;;2.40;;
66966;SDS011;53900;51.468;-2.586;2023-08-20T04:24:33;13.35;;;2.65;;
66966;SDS011;53900;51.468;-2.586;2023-08-20T04:26:58;19.00;;;2.97;;
66966;SDS011;53900;51.468;-2.586;2023-08-20T04:29:24;13.90;;;2.65;;
66966;SDS011;53900;51.468;-2.586;2023-08-20T04:31:49;13.13;;;2.47;;
66966;SDS011;53900;51.468;-2.586;2023-08-20T04:34:14;14.38;;;2.40;;
66966;SDS011;53900;51.468;-2.586;2023-08-20T04:36:39;12.63;;;2.25;;
66966;SDS011;53900;51.468;-2.586;2023-08-20T04:39:05;14.13;;;2.25;;
66966;SDS011;53900;51.468;-2.586;2023-08-20T04:41:30;11.77;;;2.20;;
66966;SDS011;53900;51.468;-2.586;2023-08-20T04:43:55;10.05;;;2.17;;
66966;SDS011;53900;51.468;-2.586;2023-08-20T04:46:20;15.02;;;2.60;;
66966;SDS011;53900;51.468;-2.586;2023-08-20T04:48:45;13.27;;;2.22;;
66966;SDS011;53900;51.468;-2.586;2023-08-20T04:51:11;16.67;;;2.85;;
66966;SDS011;53900;51.468;-2.586;2023-08-20T04:53:36;13.57;;;2.33;;
66966;SDS011;53900;51.468;-2.586;2023-08-20T04:56:01;14.32;;;2.58;;
66966;SDS011;53900;51.468;-2.586;2023-08-20T04:58:27;16.38;;;3.42;;
66966;SDS011;53900;51.468;-2.586;2023-08-20T05:00:52;12.55;;;2.63;;
66966;SDS011;53900;51.468;-2.586;2023-08-20T05:03:17;15.52;;;2.78;;
66966;SDS011;53900;51.468;-2.586;2023-08-20T05:05:47;14.05;;;3.03;;
66966;SDS011;53900;51.468;-2.586;2023-08-20T05:08:12;14.50;;;2.40;;
66966;SDS011;53900;51.468;-2.586;2023-08-20T05:10:38;12.15;;;2.53;;
66966;SDS011;53900;51.468;-2.586;2023-08-20T05:13:05;16.10;;;2.60;;
66966;SDS011;53900;51.468;-2.586;2023-08-20T05:15:30;13.07;;;2.40;;
66966;SDS011;53900;51.468;-2.586;2023-08-20T05:17:55;14.00;;;3.03;;
66966;SDS011;53900;51.468;-2.586;2023-08-20T05:20:20;9.40;;;2.22;;
66966;SDS011;53900;51.468;-2.586;2023-08-20T05:22:46;14.02;;;2.53;;
66966;SDS011;53900;51.468;-2.586;2023-08-20T05:25:11;17.50;;;3.45;;
66966;SDS011;53900;51.468;-2.586;2023-08-20T05:27:36;18.13;;;2.78;;
66966;SDS011;53900;51.468;-2.586;2023-08-20T05:30:01;14.23;;;2.95;;
66966;SDS011;53900;51.468;-2.586;2023-08-20T05:32:26;14.27;;;2.75;;
66966;SDS011;53900;51.468;-2.586;2023-08-20T05:34:52;12.05;;;2.63;;
66966;SDS011;53900;51.468;-2.586;2023-08-20T05:37:17;11.15;;;2.40;;
66966;SDS011;53900;51.468;-2.586;2023-08-20T05:39:42;12.23;;;2.35;;
66966;SDS011;53900;51.468;-2.586;2023-08-20T05:42:08;15.45;;;2.55;;
66966;SDS011;53900;51.468;-2.586;2023-08-20T05:44:33;10.88;;;2.42;;
66966;SDS011;53900;51.468;-2.586;2023-08-20T05:46:58;8.15;;;2.10;;
66966;SDS011;53900;51.468;-2.586;2023-08-20T05:49:24;13.00;;;2.60;;
66966;SDS011;53900;51.468;-2.586;2023-08-20T05:51:49;11.68;;;2.60;;
66966;SDS011;53900;51.468;-2.586;2023-08-20T05:54:14;11.18;;;2.25;;
66966;SDS011;53900;51.468;-2.586;2023-08-20T05:56:39;10.77;;;2.30;;
66966;SDS011;53900;51.468;-2.586;2023-08-20T05:59:04;17.70;;;2.90;;
66966;SDS011;53900;51.468;-2.586;2023-08-20T06:01:30;13.23;;;2.15;;
66966;SDS011;53900;51.468;-2.586;2023-08-20T06:03:55;12.40;;;2.38;;
66966;SDS011;53900;51.468;-2.586;2023-08-20T06:06:21;9.57;;;2.10;;
66966;SDS011;53900;51.468;-2.586;2023-08-20T06:08:46;18.73;;;2.72;;
66966;SDS011;53900;51.468;-2.586;2023-08-20T06:11:11;9.10;;;1.85;;
66966;SDS011;53900;51.468;-2.586;2023-08-20T06:13:36;16.60;;;2.08;;
66966;SDS011;53900;51.468;-2.586;2023-08-20T06:16:01;13.20;;;2.58;;
66966;SDS011;53900;51.468;-2.586;2023-08-20T06:18:27;8.52;;;2.10;;
66966;SDS011;53900;51.468;-2.586;2023-08-20T06:20:52;16.55;;;2.33;;
66966;SDS011;53900;51.468;-2.586;2023-08-20T06:23:17;8.77;;;2.30;;
66966;SDS011;53900;51.468;-2.586;2023-08-20T06:25:43;21.23;;;3.63;;
66966;SDS011;53900;51.468;-2.586;2023-08-20T06:28:08;14.60;;;2.17;;
66966;SDS011;53900;51.468;-2.586;2023-08-20T06:30:33;17.05;;;3.00;;
66966;SDS011;53900;51.468;-2.586;2023-08-20T06:32:58;11.55;;;2.50;;
66966;SDS011;53900;51.468;-2.586;2023-08-20T06:35:24;19.80;;;3.10;;
66966;SDS011;53900;51.468;-2.586;2023-08-20T06:37:49;11.98;;;3.20;;
66966;SDS011;53900;51.468;-2.586;2023-08-20T06:40:14;10.65;;;2.00;;
66966;SDS011;53900;51.468;-2.586;2023-08-20T06:42:39;11.18;;;2.08;;
66966;SDS011;53900;51.468;-2.586;2023-08-20T06:45:05;13.80;;;2.40;;
66966;SDS011;53900;51.468;-2.586;2023-08-20T06:47:30;17.73;;;2.67;;
66966;SDS011;53900;51.468;-2.586;2023-08-20T06:49:56;10.52;;;2.22;;
66966;SDS011;53900;51.468;-2.586;2023-08-20T06:52:21;11.77;;;2.33;;
66966;SDS011;53900;51.468;-2.586;2023-08-20T06:54:46;14.60;;;2.35;;
66966;SDS011;53900;51.468;-2.586;2023-08-20T06:57:11;10.43;;;2.50;;
66966;SDS011;53900;51.468;-2.586;2023-08-20T06:59:37;12.40;;;2.05;;
66966;SDS011;53900;51.468;-2.586;2023-08-20T07:02:02;6.70;;;1.90;;
66966;SDS011;53900;51.468;-2.586;2023-08-20T07:04:28;8.30;;;1.92;;
66966;SDS011;53900;51.468;-2.586;2023-08-20T07:06:53;11.55;;;2.20;;
66966;SDS011;53900;51.468;-2.586;2023-08-20T07:09:19;13.25;;;2.50;;
66966;SDS011;53900;51.468;-2.586;2023-08-20T07:11:44;9.60;;;1.63;;
66966;SDS011;53900;51.468;-2.586;2023-08-20T07:14:10;10.32;;;1.77;;
66966;SDS011;53900;51.468;-2.586;2023-08-20T07:16:35;9.73;;;1.60;;
66966;SDS011;53900;51.468;-2.586;2023-08-20T07:19:00;12.63;;;2.30;;
66966;SDS011;53900;51.468;-2.586;2023-08-20T07:21:25;7.65;;;1.48;;
66966;SDS011;53900;51.468;-2.586;2023-08-20T07:23:51;9.82;;;1.77;;
66966;SDS011;53900;51.468;-2.586;2023-08-20T07:26:16;12.70;;;2.33;;
66966;SDS011;53900;51.468;-2.586;2023-08-20T07:28:41;14.65;;;2.33;;
66966;SDS011;53900;51.468;-2.586;2023-08-20T07:31:22;14.38;;;2.17;;
66966;SDS011;53900;51.468;-2.586;2023-08-20T07:33:48;11.77;;;2.17;;
66966;SDS011;53900;51.468;-2.586;2023-08-20T07:36:13;8.85;;;2.28;;
66966;SDS011;53900;51.468;-2.586;2023-08-20T07:38:39;8.93;;;2.38;;
66966;SDS011;53900;51.468;-2.586;2023-08-20T07:41:06;16.23;;;2.60;;
66966;SDS011;53900;51.468;-2.586;2023-08-20T07:43:31;17.23;;;2.10;;
66966;SDS011;53900;51.468;-2.586;2023-08-20T07:45:57;8.93;;;1.80;;
66966;SDS011;53900;51.468;-2.586;2023-08-20T07:48:22;15.93;;;1.83;;
66966;SDS011;53900;51.468;-2.586;2023-08-20T07:50:47;11.13;;;2.55;;
66966;SDS011;53900;51.468;-2.586;2023-08-20T07:53:12;8.80;;;1.92;;
66966;SDS011;53900;51.468;-2.586;2023-08-20T07:55:38;8.68;;;1.75;;
66966;SDS011;53900;51.468;-2.586;2023-08-20T07:58:03;8.35;;;1.95;;
66966;SDS011;53900;51.468;-2.586;2023-08-20T08:00:28;8.50;;;1.58;;
66966;SDS011;53900;51.468;-2.586;2023-08-20T08:02:54;8.68;;;1.95;;
66966;SDS011;53900;51.468;-2.586;2023-08-20T08:05:19;10.48;;;2.25;;
66966;SDS011;53900;51.468;-2.586;2023-08-20T08:07:44;10.23;;;1.83;;
66966;SDS011;53900;51.468;-2.586;2023-08-20T08:10:10;8.27;;;1.90;;
66966;SDS011;53900;51.468;-2.586;2023-08-20T08:12:35;11.93;;;1.95;;
66966;SDS011;53900;51.468;-2.586;2023-08-20T08:15:01;6.93;;;1.50;;
66966;SDS011;53900;51.468;-2.586;2023-08-20T08:17:27;7.43;;;1.85;;
66966;SDS011;53900;51.468;-2.586;2023-08-20T08:19:52;8.50;;;1.50;;
66966;SDS011;53900;51.468;-2.586;2023-08-20T08:22:19;12.88;;;1.73;;
66966;SDS011;53900;51.468;-2.586;2023-08-20T08:24:44;7.68;;;1.60;;
66966;SDS011;53900;51.468;-2.586;2023-08-20T08:27:09;9.07;;;1.90;;
66966;SDS011;53900;51.468;-2.586;2023-08-20T08:29:35;6.85;;;1.50;;
66966;SDS011;53900;51.468;-2.586;2023-08-20T08:32:00;11.48;;;2.83;;
66966;SDS011;53900;51.468;-2.586;2023-08-20T08:34:25;12.45;;;2.10;;
66966;SDS011;53900;51.468;-2.586;2023-08-20T08:36:51;7.05;;;1.73;;
66966;SDS011;53900;51.468;-2.586;2023-08-20T08:39:16;6.97;;;1.77;;
66966;SDS011;53900;51.468;-2.586;2023-08-20T08:41:41;7.25;;;1.65;;
66966;SDS011;53900;51.468;-2.586;2023-08-20T08:44:08;12.15;;;3.55;;
66966;SDS011;53900;51.468;-2.586;2023-08-20T08:46:34;8.15;;;1.65;;
66966;SDS011;53900;51.468;-2.586;2023-08-20T08:49:00;7.53;;;1.50;;
66966;SDS011;53900;51.468;-2.586;2023-08-20T08:51:25;6.65;;;1.75;;
66966;SDS011;53900;51.468;-2.586;2023-08-20T08:53:51;5.40;;;1.35;;
66966;SDS011;53900;51.468;-2.586;2023-08-20T08:56:17;9.23;;;1.63;;
66966;SDS011;53900;51.468;-2.586;2023-08-20T08:58:42;5.68;;;1.50;;
66966;SDS011;53900;51.468;-2.586;2023-08-20T09:01:07;5.35;;;1.70;;
66966;SDS011;53900;51.468;-2.586;2023-08-20T09:03:32;6.82;;;1.98;;
66966;SDS011;53900;51.468;-2.586;2023-08-20T09:05:58;4.85;;;1.40;;
66966;SDS011;53900;51.468;-2.586;2023-08-20T09:08:29;8.02;;;1.42;;
66966;SDS011;53900;51.468;-2.586;2023-08-20T09:10:55;5.10;;;1.33;;
66966;SDS011;53900;51.468;-2.586;2023-08-20T09:13:24;6.82;;;1.80;;
66966;SDS011;53900;51.468;-2.586;2023-08-20T09:15:52;9.98;;;1.88;;
66966;SDS011;53900;51.468;-2.586;2023-08-20T09:18:18;11.70;;;2.13;;
66966;SDS011;53900;51.468;-2.586;2023-08-20T09:20:43;5.32;;;1.38;;
66966;SDS011;53900;51.468;-2.586;2023-08-20T09:23:11;8.80;;;1.67;;
66966;SDS011;53900;51.468;-2.586;2023-08-20T09:28:03;7.32;;;1.50;;
66966;SDS011;53900;51.468;-2.586;2023-08-20T09:30:29;5.75;;;1.30;;
66966;SDS011;53900;51.468;-2.586;2023-08-20T09:35:31;8.23;;;1.60;;
66966;SDS011;53900;51.468;-2.586;2023-08-20T09:38:00;5.40;;;1.52;;
66966;SDS011;53900;51.468;-2.586;2023-08-20T09:40:26;6.82;;;1.63;;
66966;SDS011;53900;51.468;-2.586;2023-08-20T09:42:52;11.02;;;3.30;;
66966;SDS011;53900;51.468;-2.586;2023-08-20T09:45:18;10.82;;;1.75;;
66966;SDS011;53900;51.468;-2.586;2023-08-20T09:47:44;9.82;;;1.55;;
66966;SDS011;53900;51.468;-2.586;2023-08-20T09:50:13;8.85;;;1.30;;
66966;SDS011;53900;51.468;-2.586;2023-08-20T09:52:39;6.60;;;1.58;;
66966;SDS011;53900;51.468;-2.586;2023-08-20T09:55:14;5.95;;;1.48;;
66966;SDS011;53900;51.468;-2.586;2023-08-20T09:57:41;6.93;;;1.58;;
66966;SDS011;53900;51.468;-2.586;2023-08-20T10:00:10;4.43;;;1.25;;
66966;SDS011;53900;51.468;-2.586;2023-08-20T10:02:35;8.27;;;1.73;;
66966;SDS011;53900;51.468;-2.586;2023-08-20T10:05:02;7.40;;;1.40;;
66966;SDS011;53900;51.468;-2.586;2023-08-20T10:07:28;6.35;;;1.35;;
66966;SDS011;53900;51.468;-2.586;2023-08-20T10:09:56;6.13;;;1.55;;
66966;SDS011;53900;51.468;-2.586;2023-08-20T10:12:22;4.22;;;1.05;;
66966;SDS011;53900;51.468;-2.586;2023-08-20T10:14:48;5.13;;;1.48;;
66966;SDS011;53900;51.468;-2.586;2023-08-20T10:17:13;7.68;;;1.67;;
66966;SDS011;53900;51.468;-2.586;2023-08-20T10:19:40;4.30;;;1.10;;
66966;SDS011;53900;51.468;-2.586;2023-08-20T10:22:06;6.70;;;1.50;;
66966;SDS011;53900;51.468;-2.586;2023-08-20T10:24:39;7.80;;;1.38;;
66966;SDS011;53900;51.468;-2.586;2023-08-20T10:27:09;7.18;;;1.70;;
66966;SDS011;53900;51.468;-2.586;2023-08-20T10:29:37;4.68;;;1.23;;
66966;SDS011;53900;51.468;-2.586;2023-08-20T10:32:10;3.47;;;1.35;;
66966;SDS011;53900;51.468;-2.586;2023-08-20T10:34:36;7.18;;;1.30;;
66966;SDS011;53900;51.468;-2.586;2023-08-20T10:37:08;4.47;;;1.30;;
66966;SDS011;53900;51.468;-2.586;2023-08-20T10:39:33;7.22;;;1.30;;
66966;SDS011;53900;51.468;-2.586;2023-08-20T10:42:08;9.45;;;1.40;;
66966;SDS011;53900;51.468;-2.586;2023-08-20T10:47:19;6.78;;;1.27;;
66966;SDS011;53900;51.468;-2.586;2023-08-20T10:49:49;3.88;;;1.02;;
66966;SDS011;53900;51.468;-2.586;2023-08-20T10:52:15;3.58;;;1.35;;
66966;SDS011;53900;51.468;-2.586;2023-08-20T10:54:42;6.55;;;1.95;;
66966;SDS011;53900;51.468;-2.586;2023-08-20T10:57:07;6.57;;;1.20;;
66966;SDS011;53900;51.468;-2.586;2023-08-20T10:59:33;5.38;;;1.52;;
66966;SDS011;53900;51.468;-2.586;2023-08-20T11:01:59;8.48;;;1.75;;
66966;SDS011;53900;51.468;-2.586;2023-08-20T11:04:28;5.32;;;1.10;;
66966;SDS011;53900;51.468;-2.586;2023-08-20T11:06:55;8.60;;;1.30;;
66966;SDS011;53900;51.468;-2.586;2023-08-20T11:09:23;5.13;;;1.35;;
66966;SDS011;53900;51.468;-2.586;2023-08-20T11:11:49;5.68;;;1.30;;
66966;SDS011;53900;51.468;-2.586;2023-08-20T11:14:15;6.63;;;1.60;;
66966;SDS011;53900;51.468;-2.586;2023-08-20T11:16:41;8.93;;;1.33;;
66966;SDS011;53900;51.468;-2.586;2023-08-20T11:19:06;4.45;;;1.40;;
66966;SDS011;53900;51.468;-2.586;2023-08-20T11:21:35;4.27;;;1.10;;
66966;SDS011;53900;51.468;-2.586;2023-08-20T11:24:01;9.15;;;1.55;;
66966;SDS011;53900;51.468;-2.586;2023-08-20T11:26:26;4.82;;;1.35;;
66966;SDS011;53900;51.468;-2.586;2023-08-20T11:28:51;5.95;;;1.17;;
66966;SDS011;53900;51.468;-2.586;2023-08-20T11:31:16;4.77;;;1.20;;
66966;SDS011;53900;51.468;-2.586;2023-08-20T11:33:41;7.63;;;1.52;;
66966;SDS011;53900;51.468;-2.586;2023-08-20T11:36:07;5.23;;;1.37;;
66966;SDS011;53900;51.468;-2.586;2023-08-20T11:38:32;4.43;;;1.15;;
66966;SDS011;53900;51.468;-2.586;2023-08-20T11:40:58;4.47;;;1.30;;
66966;SDS011;53900;51.468;-2.586;2023-08-20T11:43:24;6.25;;;1.60;;
66966;SDS011;53900;51.468;-2.586;2023-08-20T11:45:49;5.80;;;1.50;;
66966;SDS011;53900;51.468;-2.586;2023-08-20T11:48:15;6.13;;;1.40;;
66966;SDS011;53900;51.468;-2.586;2023-08-20T11:50:41;6.38;;;1.70;;
66966;SDS011;53900;51.468;-2.586;2023-08-20T11:53:07;4.70;;;1.10;;
66966;SDS011;53900;51.468;-2.586;2023-08-20T11:55:33;5.63;;;1.40;;
66966;SDS011;53900;51.468;-2.586;2023-08-20T11:57:58;5.90;;;1.38;;
66966;SDS011;53900;51.468;-2.586;2023-08-20T12:00:24;4.73;;;1.00;;
66966;SDS011;53900;51.468;-2.586;2023-08-20T12:02:51;5.00;;;1.23;;
66966;SDS011;53900;51.468;-2.586;2023-08-20T12:05:18;3.22;;;1.02;;
66966;SDS011;53900;51.468;-2.586;2023-08-20T12:07:54;4.45;;;1.30;;
66966;SDS011;53900;51.468;-2.586;2023-08-20T12:10:19;2.60;;;1.00;;
66966;SDS011;53900;51.468;-2.586;2023-08-20T12:12:47;4.78;;;1.27;;
66966;SDS011;53900;51.468;-2.586;2023-08-20T12:15:12;9.60;;;1.38;;
66966;SDS011;53900;51.468;-2.586;2023-08-20T12:17:38;4.82;;;1.00;;
66966;SDS011;53900;51.468;-2.586;2023-08-20T12:20:03;1.87;;;0.97;;
66966;SDS011;53900;51.468;-2.586;2023-08-20T12:22:37;3.55;;;1.13;;
66966;SDS011;53900;51.468;-2.586;2023-08-20T12:25:02;4.47;;;1.20;;
66966;SDS011;53900;51.468;-2.586;2023-08-20T12:27:28;6.22;;;1.30;;
66966;SDS011;53900;51.468;-2.586;2023-08-20T12:29:54;4.40;;;1.02;;
66966;SDS011;53900;51.468;-2.586;2023-08-20T12:32:19;5.47;;;1.20;;
66966;SDS011;53900;51.468;-2.586;2023-08-20T12:34:44;2.80;;;0.80;;
66966;SDS011;53900;51.468;-2.586;2023-08-20T12:37:09;5.30;;;1.00;;
66966;SDS011;53900;51.468;-2.586;2023-08-20T12:39:34;4.28;;;0.98;;
66966;SDS011;53900;51.468;-2.586;2023-08-20T12:41:59;2.47;;;0.90;;
66966;SDS011;53900;51.468;-2.586;2023-08-20T12:44:25;3.33;;;1.00;;
66966;SDS011;53900;51.468;-2.586;2023-08-20T12:46:50;5.10;;;0.98;;
66966;SDS011;53900;51.468;-2.586;2023-08-20T12:49:16;4.30;;;1.08;;
66966;SDS011;53900;51.468;-2.586;2023-08-20T12:51:42;4.00;;;0.85;;
66966;SDS011;53900;51.468;-2.586;2023-08-20T12:54:07;3.15;;;1.15;;
66966;SDS011;53900;51.468;-2.586;2023-08-20T12:56:32;1.30;;;0.60;;
66966;SDS011;53900;51.468;-2.586;2023-08-20T12:58:57;3.92;;;0.90;;
66966;SDS011;53900;51.468;-2.586;2023-08-20T13:01:23;1.40;;;0.80;;
66966;SDS011;53900;51.468;-2.586;2023-08-20T13:03:48;8.43;;;1.00;;
66966;SDS011;53900;51.468;-2.586;2023-08-20T13:06:13;3.60;;;1.05;;
66966;SDS011;53900;51.468;-2.586;2023-08-20T13:08:39;2.45;;;0.98;;
66966;SDS011;53900;51.468;-2.586;2023-08-20T13:11:04;3.15;;;0.80;;
66966;SDS011;53900;51.468;-2.586;2023-08-20T13:13:31;2.88;;;1.20;;
66966;SDS011;53900;51.468;-2.586;2023-08-20T13:15:57;2.25;;;1.23;;
66966;SDS011;53900;51.468;-2.586;2023-08-20T13:18:22;2.50;;;1.25;;
66966;SDS011;53900;51.468;-2.586;2023-08-20T13:20:51;3.87;;;1.60;;
66966;SDS011;53900;51.468;-2.586;2023-08-20T13:23:17;1.95;;;0.90;;
66966;SDS011;53900;51.468;-2.586;2023-08-20T13:25:42;2.75;;;1.17;;
66966;SDS011;53900;51.468;-2.586;2023-08-20T13:28:08;6.53;;;1.27;;
66966;SDS011;53900;51.468;-2.586;2023-08-20T13:30:33;2.40;;;1.00;;
66966;SDS011;53900;51.468;-2.586;2023-08-20T13:32:58;4.15;;;0.98;;
66966;SDS011;53900;51.468;-2.586;2023-08-20T13:35:24;4.55;;;1.20;;
66966;SDS011;53900;51.468;-2.586;2023-08-20T13:37:49;3.90;;;1.10;;
66966;SDS011;53900;51.468;-2.586;2023-08-20T13:40:14;1.50;;;0.93;;
66966;SDS011;53900;51.468;-2.586;2023-08-20T13:42:39;4.00;;;1.20;;
66966;SDS011;53900;51.468;-2.586;2023-08-20T13:45:05;2.20;;;1.02;;
66966;SDS011;53900;51.468;-2.586;2023-08-20T13:47:30;4.05;;;1.00;;
66966;SDS011;53900;51.468;-2.586;2023-08-20T13:49:56;3.80;;;1.20;;
66966;SDS011;53900;51.468;-2.586;2023-08-20T13:52:22;2.72;;;1.00;;
66966;SDS011;53900;51.468;-2.586;2023-08-20T13:54:47;5.43;;;1.70;;
66966;SDS011;53900;51.468;-2.586;2023-08-20T13:57:12;2.90;;;1.13;;
66966;SDS011;53900;51.468;-2.586;2023-08-20T13:59:37;5.30;;;1.30;;
66966;SDS011;53900;51.468;-2.586;2023-08-20T14:02:03;5.22;;;1.30;;
66966;SDS011;53900;51.468;-2.586;2023-08-20T14:04:29;4.68;;;2.08;;
66966;SDS011;53900;51.468;-2.586;2023-08-20T14:06:54;3.47;;;1.20;;
66966;SDS011;53900;51.468;-2.586;2023-08-20T14:09:19;5.97;;;1.40;;
66966;SDS011;53900;51.468;-2.586;2023-08-20T14:11:45;4.37;;;1.30;;
66966;SDS011;53900;51.468;-2.586;2023-08-20T14:14:10;3.97;;;1.38;;
66966;SDS011;53900;51.468;-2.586;2023-08-20T14:16:36;3.53;;;1.15;;
66966;SDS011;53900;51.468;-2.586;2023-08-20T14:19:01;2.72;;;1.10;;
66966;SDS011;53900;51.468;-2.586;2023-08-20T14:21:26;4.88;;;1.80;;
66966;SDS011;53900;51.468;-2.586;2023-08-20T14:23:51;8.50;;;1.75;;
66966;SDS011;53900;51.468;-2.586;2023-08-20T14:26:17;4.47;;;1.27;;
66966;SDS011;53900;51.468;-2.586;2023-08-20T14:28:42;4.80;;;1.30;;
66966;SDS011;53900;51.468;-2.586;2023-08-20T14:31:10;4.93;;;1.50;;
66966;SDS011;53900;51.468;-2.586;2023-08-20T14:33:36;3.10;;;1.30;;
66966;SDS011;53900;51.468;-2.586;2023-08-20T14:36:01;5.80;;;1.52;;
66966;SDS011;53900;51.468;-2.586;2023-08-20T14:38:27;6.65;;;1.45;;